Time;durP1;ratioP1;P1;durP2;ratioP2;P2;SDS_P1;SDS_P2;PMS_P1;PMS_P2;Temp;Humidity;BMP_temperature;BMP_pressure;BME280_temperature;BME280_humidity;BME280_pressure;Samples;Min_cycle;Max_cycle;Signal;HPM_P1;HPM_P2
2023/05/17 00:00:38;;;;;;;7.18;3.03;;;16.10;80.20;;;;;;7380822;19;20079;-73
2023/05/17 00:03:06;;;;;;;9.38;3.15;;;16.10;80.10;;;;;;7403268;19;20413;-73
2023/05/17 00:05:35;;;;;;;8.13;3.10;;;15.90;80.00;;;;;;7381074;19;20118;-73
2023/05/17 00:08:07;;;;;;;9.38;3.28;;;15.80;80.50;;;;;;7381118;19;20070;-73
2023/05/17 00:10:35;;;;;;;7.10;3.28;;;15.70;80.80;;;;;;7381641;19;20062;-72
2023/05/17 00:13:04;;;;;;;7.70;3.38;;;15.70;81.10;;;;;;7380039;19;20062;-71
2023/05/17 00:15:33;;;;;;;11.88;3.45;;;15.70;81.30;;;;;;7380526;19;20250;-73
2023/05/17 00:18:01;;;;;;;9.15;3.20;;;15.70;81.30;;;;;;7402592;19;20044;-71
2023/05/17 00:20:30;;;;;;;9.10;3.05;;;15.70;81.50;;;;;;7380791;19;20054;-72
2023/05/17 00:22:59;;;;;;;14.23;3.10;;;15.70;81.30;;;;;;7380649;19;20007;-72
2023/05/17 00:25:30;;;;;;;11.60;3.42;;;15.70;81.30;;;;;;7385644;19;20019;-72
2023/05/17 00:27:59;;;;;;;10.07;3.40;;;15.70;81.10;;;;;;7391068;19;20007;-72
2023/05/17 00:30:28;;;;;;;9.30;3.53;;;15.80;80.90;;;;;;7405986;19;20024;-72
2023/05/17 00:32:56;;;;;;;9.30;3.65;;;15.80;80.90;;;;;;7381411;19;20007;-72
2023/05/17 00:35:25;;;;;;;10.95;3.47;;;15.80;81.00;;;;;;7381680;19;20369;-72
2023/05/17 00:37:54;;;;;;;12.32;3.25;;;15.80;80.80;;;;;;7382108;19;20019;-72
2023/05/17 00:40:23;;;;;;;6.93;3.40;;;15.80;81.00;;;;;;7381706;19;20127;-72
2023/05/17 00:42:54;;;;;;;13.85;3.45;;;15.80;81.90;;;;;;7385070;19;20019;-72
2023/05/17 00:45:23;;;;;;;7.40;3.58;;;15.80;81.10;;;;;;7400559;19;20012;-72
2023/05/17 00:47:52;;;;;;;10.32;3.40;;;15.80;81.10;;;;;;7380558;19;20007;-73
2023/05/17 00:50:20;;;;;;;10.43;3.95;;;15.80;80.90;;;;;;7380054;19;20003;-73
2023/05/17 00:52:49;;;;;;;12.75;3.85;;;15.80;80.80;;;;;;7380075;19;20015;-72
2023/05/17 00:55:18;;;;;;;14.75;3.95;;;15.80;81.10;;;;;;7380647;19;20007;-73
2023/05/17 00:57:47;;;;;;;6.93;3.13;;;15.70;81.00;;;;;;7381225;19;20078;-72
2023/05/17 01:00:19;;;;;;;16.65;3.83;;;15.70;81.30;;;;;;7401458;19;20082;-73
2023/05/17 01:02:48;;;;;;;10.10;3.28;;;15.60;81.60;;;;;;7380482;19;20012;-72
2023/05/17 01:05:17;;;;;;;13.02;3.50;;;15.60;81.50;;;;;;7379589;19;20006;-72
2023/05/17 01:07:45;;;;;;;6.78;3.55;;;15.60;81.60;;;;;;7380233;19;20007;-72
2023/05/17 01:10:15;;;;;;;13.00;3.58;;;15.70;81.70;;;;;;7379199;19;20031;-72
2023/05/17 01:12:58;;;;;;;10.25;4.13;;;15.60;81.40;;;;;;7379961;19;20003;-72
2023/05/17 01:15:33;;;;;;;12.65;3.42;;;15.60;81.30;;;;;;7401456;19;20013;-72
2023/05/17 01:18:10;;;;;;;7.03;2.97;;;15.60;81.60;;;;;;7379351;19;20007;-72
2023/05/17 01:20:41;;;;;;;8.13;3.53;;;15.60;81.40;;;;;;7379276;19;20027;-72
2023/05/17 01:23:28;;;;;;;15.18;3.08;;;15.60;81.40;;;;;;7380020;19;20218;-72
2023/05/17 01:26:06;;;;;;;9.65;3.30;;;15.60;81.60;;;;;;7379574;19;20003;-72
2023/05/17 01:28:40;;;;;;;12.65;3.30;;;15.50;81.60;;;;;;7385676;19;20007;-72
2023/05/17 01:31:10;;;;;;;8.00;3.33;;;15.50;81.40;;;;;;7386315;19;20408;-72
2023/05/17 01:33:42;;;;;;;7.68;3.58;;;15.50;81.50;;;;;;7385963;19;20062;-72
2023/05/17 01:36:11;;;;;;;9.80;3.65;;;15.50;81.50;;;;;;7407730;19;20305;-72
2023/05/17 01:38:40;;;;;;;8.65;3.45;;;15.50;81.70;;;;;;7386934;19;20007;-72
2023/05/17 01:41:17;;;;;;;8.48;3.30;;;15.40;81.50;;;;;;7386320;19;20003;-72
2023/05/17 01:43:52;;;;;;;8.40;3.25;;;15.40;81.80;;;;;;7386270;19;20003;-72
2023/05/17 01:46:27;;;;;;;16.65;3.10;;;15.40;82.00;;;;;;7386050;19;20280;-72
2023/05/17 01:49:06;;;;;;;6.38;3.00;;;15.40;81.90;;;;;;7386721;19;20003;-72
2023/05/17 01:51:39;;;;;;;7.22;2.90;;;15.40;81.70;;;;;;7383684;19;20006;-72
2023/05/17 01:54:10;;;;;;;9.00;3.70;;;15.40;81.70;;;;;;7404865;19;20018;-73
2023/05/17 01:56:44;;;;;;;9.65;3.75;;;15.30;81.50;;;;;;7385287;19;20062;-72
2023/05/17 01:59:23;;;;;;;12.23;3.40;;;15.30;81.90;;;;;;7386012;19;20011;-72
2023/05/17 02:01:52;;;;;;;10.23;3.33;;;15.20;82.20;;;;;;7386245;19;20009;-73
2023/05/17 02:04:21;;;;;;;7.72;3.33;;;15.20;82.20;;;;;;7386544;19;20034;-73
2023/05/17 02:06:50;;;;;;;9.27;3.20;;;15.20;81.90;;;;;;7387499;19;20023;-73
2023/05/17 02:09:18;;;;;;;11.10;3.88;;;15.20;82.20;;;;;;7407459;19;20034;-72
2023/05/17 02:11:47;;;;;;;8.52;3.50;;;15.10;82.20;;;;;;7384744;19;20058;-72
2023/05/17 02:14:18;;;;;;;9.20;3.63;;;15.20;82.40;;;;;;7384197;19;20054;-72
2023/05/17 02:16:47;;;;;;;9.05;3.60;;;15.10;82.30;;;;;;7384481;19;20003;-72
2023/05/17 02:19:15;;;;;;;11.00;3.90;;;15.00;82.70;;;;;;7384905;19;20406;-72
2023/05/17 02:21:44;;;;;;;12.43;4.18;;;14.90;82.90;;;;;;7385336;19;20007;-72
2023/05/17 02:24:13;;;;;;;10.23;3.63;;;14.90;83.10;;;;;;7406330;19;20034;-72
2023/05/17 02:26:42;;;;;;;10.05;3.65;;;14.90;83.40;;;;;;7384280;19;20077;-72
2023/05/17 02:29:11;;;;;;;9.10;3.67;;;14.90;83.70;;;;;;7384514;19;20237;-72
2023/05/17 02:31:43;;;;;;;9.07;3.80;;;15.00;83.70;;;;;;7383167;19;20015;-72
2023/05/17 02:34:11;;;;;;;;;;;15.00;83.50;;;;;;7385388;19;20006;-72
2023/05/17 02:36:40;;;;;;;8.48;3.80;;;15.10;83.30;;;;;;7386679;19;19919;-72
2023/05/17 02:39:08;;;;;;;7.70;3.55;;;15.10;83.00;;;;;;7403235;19;20070;-72
2023/05/17 02:41:37;;;;;;;13.82;3.88;;;15.20;83.00;;;;;;7383831;19;20003;-72
2023/05/17 02:44:06;;;;;;;10.57;3.47;;;15.10;82.90;;;;;;7384180;19;20006;-72
2023/05/17 02:46:34;;;;;;;14.10;4.05;;;15.20;83.10;;;;;;7384080;19;20011;-72
2023/05/17 02:49:06;;;;;;;8.27;3.58;;;15.20;82.60;;;;;;7384446;19;19999;-72
2023/05/17 02:51:34;;;;;;;14.57;3.88;;;15.20;82.60;;;;;;7384820;19;20006;-72
2023/05/17 02:54:03;;;;;;;8.73;3.65;;;15.10;82.80;;;;;;7402696;19;20007;-72
2023/05/17 02:56:32;;;;;;;12.60;3.80;;;15.10;83.00;;;;;;7383223;19;20003;-73
2023/05/17 02:59:01;;;;;;;7.63;3.33;;;15.10;83.00;;;;;;7384343;19;20007;-72
2023/05/17 03:01:30;;;;;;;10.27;3.60;;;15.00;83.30;;;;;;7383692;19;20326;-72
2023/05/17 03:03:58;;;;;;;13.95;3.85;;;14.90;83.60;;;;;;7381924;19;20425;-72
2023/05/17 03:06:30;;;;;;;9.32;3.50;;;15.00;84.80;;;;;;7403643;19;20010;-72
2023/05/17 03:08:58;;;;;;;9.90;3.88;;;15.00;84.00;;;;;;7383709;19;20007;-72
2023/05/17 03:11:27;;;;;;;10.60;3.53;;;15.10;83.90;;;;;;7382768;19;20397;-72
2023/05/17 03:13:56;;;;;;;11.52;3.90;;;15.00;83.60;;;;;;7383531;19;20397;-72
2023/05/17 03:16:25;;;;;;;6.75;3.47;;;15.00;83.80;;;;;;7383145;19;20011;-72
2023/05/17 03:18:54;;;;;;;11.23;3.55;;;15.00;83.80;;;;;;7384190;19;20014;-71
2023/05/17 03:21:22;;;;;;;11.27;4.25;;;15.00;83.80;;;;;;7405288;19;20030;-71
2023/05/17 03:23:53;;;;;;;14.93;4.22;;;15.00;83.90;;;;;;7386700;19;20058;-72
2023/05/17 03:26:22;;;;;;;11.77;3.90;;;15.00;83.90;;;;;;7384064;19;20002;-71
2023/05/17 03:28:51;;;;;;;11.30;4.05;;;14.90;84.00;;;;;;7383769;19;20002;-71
2023/05/17 03:31:20;;;;;;;8.07;3.83;;;14.90;84.40;;;;;;7383438;19;20007;-71
2023/05/17 03:33:49;;;;;;;7.95;3.70;;;14.90;84.30;;;;;;7382156;19;20007;-71
2023/05/17 03:36:17;;;;;;;10.63;4.30;;;14.80;84.40;;;;;;7405093;19;20028;-71
2023/05/17 03:38:46;;;;;;;12.35;4.15;;;14.70;84.60;;;;;;7382628;19;20068;-71
2023/05/17 03:41:17;;;;;;;9.88;4.10;;;14.70;84.70;;;;;;7383014;19;19998;-71
2023/05/17 03:43:46;;;;;;;;;;;14.80;84.40;;;;;;7383449;19;20020;-71
2023/05/17 03:46:14;;;;;;;13.05;4.03;;;14.80;84.60;;;;;;7382791;19;19911;-71
2023/05/17 03:48:43;;;;;;;10.32;4.20;;;14.80;84.40;;;;;;7382228;19;20029;-71
2023/05/17 03:51:12;;;;;;;14.20;4.15;;;14.70;84.40;;;;;;7403478;19;20019;-71
2023/05/17 03:53:42;;;;;;;10.25;3.97;;;14.70;84.70;;;;;;7381609;19;20003;-71
2023/05/17 03:56:11;;;;;;;12.82;4.38;;;14.70;84.40;;;;;;7382351;19;20010;-71
2023/05/17 03:58:42;;;;;;;11.27;4.68;;;14.70;84.30;;;;;;7382295;19;20003;-72
2023/05/17 04:01:11;;;;;;;9.88;4.50;;;14.70;84.10;;;;;;7381976;19;20028;-72
2023/05/17 04:03:39;;;;;;;7.97;4.25;;;14.70;84.10;;;;;;7379789;19;20003;-72
2023/05/17 04:06:09;;;;;;;8.63;4.30;;;14.70;84.40;;;;;;7401041;19;20021;-72
2023/05/17 04:08:37;;;;;;;11.82;4.38;;;14.70;84.30;;;;;;7380702;19;20006;-72
2023/05/17 04:11:09;;;;;;;12.45;4.53;;;14.70;84.00;;;;;;7380926;19;20007;-72
2023/05/17 04:13:37;;;;;;;;;;;14.70;83.80;;;;;;7382361;19;20006;-72
2023/05/17 04:16:09;;;;;;;10.82;4.78;;;14.70;84.00;;;;;;7380100;19;19910;-72
2023/05/17 04:18:40;;;;;;;14.57;4.60;;;14.60;84.10;;;;;;7381788;19;20007;-72
2023/05/17 04:21:08;;;;;;;10.80;4.75;;;14.60;84.30;;;;;;7403375;19;20027;-72
2023/05/17 04:23:37;;;;;;;15.30;4.70;;;14.50;84.20;;;;;;7380471;19;20433;-72
2023/05/17 04:26:07;;;;;;;17.98;5.45;;;14.50;85.40;;;;;;7381247;19;20007;-73
2023/05/17 04:28:36;;;;;;;12.55;4.88;;;14.50;84.30;;;;;;7382368;19;20007;-72
2023/05/17 04:31:11;;;;;;;10.30;5.07;;;14.50;84.40;;;;;;7380622;19;20062;-72
2023/05/17 04:33:40;;;;;;;13.90;6.35;;;14.50;84.60;;;;;;7379197;19;20006;-72
2023/05/17 04:36:10;;;;;;;14.75;6.28;;;14.50;84.70;;;;;;7400994;19;20051;-72
2023/05/17 04:38:39;;;;;;;14.57;5.97;;;14.50;84.90;;;;;;7380769;19;20007;-72
2023/05/17 04:41:11;;;;;;;15.73;6.65;;;14.60;85.00;;;;;;7380555;19;20010;-71
2023/05/17 04:43:40;;;;;;;16.65;7.45;;;14.60;85.20;;;;;;7380773;19;20003;-71
2023/05/17 04:46:12;;;;;;;13.93;6.60;;;14.60;85.30;;;;;;7381069;19;19999;-72
2023/05/17 04:48:40;;;;;;;26.08;7.97;;;14.60;85.30;;;;;;7380427;19;20066;-71
2023/05/17 04:51:09;;;;;;;17.55;7.95;;;14.60;85.30;;;;;;7402183;19;20003;-71
2023/05/17 04:53:38;;;;;;;19.45;7.78;;;14.60;85.50;;;;;;7379527;19;20295;-71
2023/05/17 04:56:07;;;;;;;20.75;8.82;;;14.70;85.70;;;;;;7379379;19;20054;-72
2023/05/17 04:58:36;;;;;;;21.75;8.75;;;14.70;85.80;;;;;;7380276;19;20020;-72
2023/05/17 05:01:04;;;;;;;20.67;8.85;;;14.70;85.80;;;;;;7380488;19;20065;-72
2023/05/17 05:03:36;;;;;;;29.27;9.65;;;14.80;86.00;;;;;;7386874;19;20022;-71
2023/05/17 05:06:05;;;;;;;;;;;14.70;86.10;;;;;;7407558;19;20002;-71
2023/05/17 05:08:36;;;;;;;27.52;11.35;;;14.80;86.20;;;;;;7386889;19;19918;-72
2023/05/17 05:11:05;;;;;;;26.88;10.90;;;14.70;86.40;;;;;;7387611;19;19998;-72
2023/05/17 05:13:36;;;;;;;20.55;11.13;;;14.70;86.60;;;;;;7384448;19;20006;-72
2023/05/17 05:16:06;;;;;;;24.58;10.98;;;14.80;86.70;;;;;;7384719;19;20003;-71
2023/05/17 05:18:37;;;;;;;28.23;11.77;;;14.80;86.90;;;;;;7387413;19;20104;-71
2023/05/17 05:21:06;;;;;;;32.63;12.07;;;14.60;87.20;;;;;;7409335;19;20078;-71
2023/05/17 05:23:35;;;;;;;31.23;12.60;;;14.70;87.60;;;;;;7387159;19;20010;-71
2023/05/17 05:26:03;;;;;;;31.30;12.13;;;14.70;87.60;;;;;;7386480;19;20026;-71
2023/05/17 05:28:32;;;;;;;30.40;12.25;;;14.80;87.60;;;;;;7389021;19;20010;-71
2023/05/17 05:31:01;;;;;;;30.38;12.77;;;14.80;88.50;;;;;;7385335;19;20007;-71
2023/05/17 05:33:30;;;;;;;31.55;12.60;;;14.80;87.80;;;;;;7408581;19;20362;-72
2023/05/17 05:36:02;;;;;;;28.73;12.68;;;14.90;87.70;;;;;;7384559;19;20003;-71
2023/05/17 05:38:30;;;;;;;29.67;13.68;;;14.90;87.50;;;;;;7386035;19;20023;-71
2023/05/17 05:40:59;;;;;;;29.63;13.48;;;14.90;87.40;;;;;;7386182;19;20326;-71
2023/05/17 05:43:28;;;;;;;34.63;14.00;;;15.00;87.50;;;;;;7386480;19;20227;-71
2023/05/17 05:45:56;;;;;;;27.13;13.73;;;15.00;87.30;;;;;;7385225;19;20023;-72
2023/05/17 05:48:25;;;;;;;30.13;14.25;;;15.00;87.30;;;;;;7408393;19;20087;-72
2023/05/17 05:50:53;;;;;;;29.10;14.02;;;15.10;86.90;;;;;;7387348;19;20011;-72
2023/05/17 05:53:25;;;;;;;31.85;14.18;;;15.10;86.80;;;;;;7385875;19;20287;-72
2023/05/17 05:55:54;;;;;;;25.75;12.63;;;15.20;86.90;;;;;;7385339;19;20022;-72
2023/05/17 05:58:22;;;;;;;31.60;12.18;;;15.30;87.50;;;;;;7385854;19;20010;-71
2023/05/17 06:00:51;;;;;;;26.77;11.73;;;15.30;86.30;;;;;;7385685;19;20027;-72
2023/05/17 06:03:20;;;;;;;27.80;10.93;;;15.30;85.90;;;;;;7405319;19;20010;-72
2023/05/17 06:05:48;;;;;;;30.13;8.63;;;15.30;84.60;;;;;;7384989;19;20000;-72
2023/05/17 06:08:17;;;;;;;16.67;7.35;;;15.30;82.60;;;;;;7385011;19;20003;-72
2023/05/17 06:10:49;;;;;;;15.15;7.47;;;15.40;82.60;;;;;;7385148;19;20388;-72
2023/05/17 06:13:17;;;;;;;;;;;15.30;81.60;;;;;;7385549;19;20013;-72
2023/05/17 06:15:46;;;;;;;18.30;6.15;;;15.30;81.10;;;;;;7383263;19;19970;-72
2023/05/17 06:18:14;;;;;;;18.73;6.68;;;15.30;81.70;;;;;;7406697;19;20027;-72
2023/05/17 06:20:43;;;;;;;22.48;6.68;;;15.30;81.60;;;;;;7391078;19;20006;-72
2023/05/17 06:23:12;;;;;;;19.58;6.57;;;15.20;81.30;;;;;;7386887;19;20007;-72
2023/05/17 06:25:42;;;;;;;17.38;7.30;;;15.20;82.30;;;;;;7385048;19;20098;-72
2023/05/17 06:28:13;;;;;;;23.65;8.23;;;15.20;81.60;;;;;;7385334;19;20020;-72
2023/05/17 06:30:42;;;;;;;27.30;8.38;;;15.10;81.60;;;;;;7383933;19;20244;-72
2023/05/17 06:33:10;;;;;;;24.00;8.55;;;15.10;82.10;;;;;;7405692;19;20278;-72
2023/05/17 06:35:39;;;;;;;28.77;8.43;;;15.20;82.50;;;;;;7383329;19;20082;-72
2023/05/17 06:38:08;;;;;;;28.30;8.20;;;15.30;81.90;;;;;;7383632;19;20006;-71
2023/05/17 06:40:36;;;;;;;25.23;8.90;;;15.50;81.90;;;;;;7386425;19;20083;-71
2023/05/17 06:43:05;;;;;;;22.35;8.80;;;15.20;81.20;;;;;;7384369;19;20011;-72
2023/05/17 06:45:36;;;;;;;20.48;8.70;;;15.30;81.60;;;;;;7384216;19;20020;-72
2023/05/17 06:48:05;;;;;;;28.35;11.70;;;15.40;81.70;;;;;;7405221;19;20235;-71
2023/05/17 06:50:34;;;;;;;28.55;8.75;;;15.60;81.60;;;;;;7383708;19;20377;-71
2023/05/17 06:53:05;;;;;;;16.75;6.75;;;15.60;80.90;;;;;;7383681;19;20007;-72
2023/05/17 06:55:34;;;;;;;13.52;5.60;;;15.60;80.30;;;;;;7384941;19;20019;-72
2023/05/17 06:58:02;;;;;;;14.25;5.32;;;15.60;79.70;;;;;;7386144;19;20427;-71
2023/05/17 07:00:31;;;;;;;16.85;5.40;;;15.60;79.20;;;;;;7406250;19;19999;-72
2023/05/17 07:03:02;;;;;;;12.80;4.82;;;15.60;79.10;;;;;;7386988;19;20014;-72
2023/05/17 07:05:31;;;;;;;23.17;5.00;;;15.70;79.00;;;;;;7384328;19;20373;-72
2023/05/17 07:08:00;;;;;;;17.60;5.22;;;15.70;78.40;;;;;;7383547;19;20024;-72
2023/05/17 07:10:29;;;;;;;16.80;5.00;;;15.70;78.30;;;;;;7383924;19;20054;-71
2023/05/17 07:12:57;;;;;;;18.92;5.20;;;15.80;78.10;;;;;;7383496;19;20385;-72
2023/05/17 07:15:26;;;;;;;12.93;4.65;;;15.80;78.10;;;;;;7404424;19;20003;-71
2023/05/17 07:17:55;;;;;;;15.82;5.50;;;15.90;77.80;;;;;;7382904;19;20019;-71
2023/05/17 07:20:26;;;;;;;14.13;4.90;;;15.60;77.00;;;;;;7383948;19;20002;-71
2023/05/17 07:22:55;;;;;;;;;;;15.50;77.00;;;;;;7383837;19;20019;-71
2023/05/17 07:25:23;;;;;;;16.60;5.50;;;15.70;76.60;;;;;;7380649;19;19911;-71
2023/05/17 07:27:52;;;;;;;20.65;5.63;;;15.70;77.00;;;;;;7384323;19;20019;-71
2023/05/17 07:30:21;;;;;;;14.73;5.53;;;15.80;77.10;;;;;;7402384;19;20062;-71
2023/05/17 07:32:49;;;;;;;17.92;5.20;;;15.80;76.80;;;;;;7382257;19;20002;-71
2023/05/17 07:35:19;;;;;;;18.70;6.32;;;15.70;77.30;;;;;;7382205;19;20014;-71
2023/05/17 07:37:50;;;;;;;16.20;5.88;;;15.70;78.00;;;;;;7381509;19;20006;-71
2023/05/17 07:40:19;;;;;;;13.48;4.82;;;15.40;77.60;;;;;;7382948;19;20003;-71
2023/05/17 07:42:48;;;;;;;19.10;5.90;;;15.30;77.50;;;;;;7382799;19;20014;-71
2023/05/17 07:45:17;;;;;;;20.13;5.07;;;15.20;77.90;;;;;;7401636;19;20301;-72
2023/05/17 07:47:45;;;;;;;18.42;4.20;;;15.50;78.00;;;;;;7381912;19;20014;-71
2023/05/17 07:50:14;;;;;;;11.02;4.25;;;15.70;78.00;;;;;;7381897;19;20070;-71
2023/05/17 07:52:43;;;;;;;18.17;4.60;;;15.80;77.90;;;;;;7382349;19;20007;-71
2023/05/17 07:55:14;;;;;;;11.82;3.90;;;15.50;76.30;;;;;;7382597;19;20042;-71
2023/05/17 07:57:43;;;;;;;21.95;4.20;;;15.40;76.90;;;;;;7382790;19;20006;-72
2023/05/17 08:00:13;;;;;;;13.85;4.60;;;15.40;78.20;;;;;;7403731;19;20016;-72
2023/05/17 08:02:42;;;;;;;8.52;4.35;;;15.60;78.10;;;;;;7381499;19;20432;-71
2023/05/17 08:05:11;;;;;;;11.93;4.20;;;15.70;77.40;;;;;;7380985;19;20428;-71
2023/05/17 08:07:40;;;;;;;14.98;4.07;;;15.60;77.10;;;;;;7381728;19;20016;-71
2023/05/17 08:10:09;;;;;;;14.32;3.97;;;15.60;77.50;;;;;;7382760;19;20011;-72
2023/05/17 08:12:41;;;;;;;13.02;3.88;;;15.70;76.60;;;;;;7383273;19;20357;-72
2023/05/17 08:15:11;;;;;;;14.68;4.43;;;15.70;76.00;;;;;;7405429;19;20014;-72
2023/05/17 08:17:39;;;;;;;14.35;4.60;;;15.70;76.10;;;;;;7382629;19;20133;-73
2023/05/17 08:20:11;;;;;;;13.65;4.22;;;15.90;76.80;;;;;;7381250;19;20288;-73
2023/05/17 08:22:40;;;;;;;9.55;4.30;;;15.90;76.80;;;;;;7380227;19;20005;-74
2023/05/17 08:25:09;;;;;;;14.90;5.00;;;16.00;76.60;;;;;;7380592;19;20064;-73
2023/05/17 08:27:40;;;;;;;23.05;5.05;;;16.10;76.10;;;;;;7379379;19;20016;-73
2023/05/17 08:30:10;;;;;;;13.18;5.10;;;16.10;75.50;;;;;;7402009;19;20062;-73
2023/05/17 08:32:39;;;;;;;19.00;5.72;;;15.60;75.60;;;;;;7380156;19;20308;-73
2023/05/17 08:35:09;;;;;;;16.25;5.82;;;15.70;76.40;;;;;;7381225;19;20010;-73
2023/05/17 08:37:38;;;;;;;16.70;5.50;;;15.90;76.20;;;;;;7387948;19;20003;-73
2023/05/17 08:40:08;;;;;;;21.60;6.72;;;15.90;76.30;;;;;;7386116;19;20006;-73
2023/05/17 08:42:41;;;;;;;21.75;6.03;;;15.80;74.70;;;;;;7385914;19;20074;-73
2023/05/17 08:45:11;;;;;;;15.13;5.97;;;15.50;75.00;;;;;;7409372;19;20358;-72
2023/05/17 08:47:41;;;;;;;14.77;5.22;;;15.80;75.60;;;;;;7387100;19;20013;-73
2023/05/17 08:50:11;;;;;;;14.07;6.28;;;15.90;75.30;;;;;;7388117;19;20017;-72
2023/05/17 08:52:41;;;;;;;19.33;7.78;;;16.00;73.70;;;;;;7386260;19;20007;-73
2023/05/17 08:55:11;;;;;;;20.00;5.97;;;15.90;74.90;;;;;;7387069;19;20027;-73
2023/05/17 08:57:43;;;;;;;13.02;5.22;;;15.90;76.80;;;;;;7387923;19;20268;-72
2023/05/17 09:00:15;;;;;;;17.55;5.32;;;16.00;75.40;;;;;;7408911;19;20018;-73
2023/05/17 09:02:44;;;;;;;11.65;5.15;;;15.90;73.60;;;;;;7386485;19;20013;-73
2023/05/17 09:05:13;;;;;;;22.38;5.25;;;16.00;74.40;;;;;;7388449;19;20034;-73
2023/05/17 09:07:42;;;;;;;17.77;4.90;;;16.10;72.80;;;;;;7389903;19;20296;-73
2023/05/17 09:10:12;;;;;;;26.15;5.57;;;16.20;72.80;;;;;;7389350;19;19999;-73
2023/05/17 09:12:43;;;;;;;15.65;5.47;;;16.20;72.00;;;;;;7389499;19;20011;-74
2023/05/17 09:15:22;;;;;;;15.50;5.45;;;16.30;72.50;;;;;;7409053;19;20003;-74
2023/05/17 09:17:54;;;;;;;16.48;5.65;;;16.30;71.40;;;;;;7388495;19;20013;-73
2023/05/17 09:20:33;;;;;;;19.73;5.28;;;16.30;71.90;;;;;;7391051;19;20065;-73
2023/05/17 09:23:02;;;;;;;10.13;4.43;;;16.30;71.20;;;;;;7408271;19;20003;-73
2023/05/17 09:25:32;;;;;;;17.58;5.05;;;16.10;70.00;;;;;;7393251;19;20007;-73
2023/05/17 09:28:06;;;;;;;19.25;5.00;;;16.00;70.00;;;;;;7389883;19;19999;-75
2023/05/17 09:30:38;;;;;;;12.07;4.53;;;16.20;70.80;;;;;;7386225;19;20047;-73
2023/05/17 09:33:11;;;;;;;20.00;5.13;;;16.40;71.20;;;;;;7408964;19;20365;-73
2023/05/17 09:35:41;;;;;;;18.90;5.40;;;16.50;71.30;;;;;;7385644;19;20282;-73
2023/05/17 09:38:11;;;;;;;11.82;5.18;;;16.50;71.70;;;;;;7385776;19;20026;-73
2023/05/17 09:40:41;;;;;;;14.60;4.30;;;16.70;71.60;;;;;;7386557;19;20010;-74
2023/05/17 09:43:14;;;;;;;12.43;4.13;;;16.70;70.20;;;;;;7384186;19;20006;-73
2023/05/17 09:45:42;;;;;;;12.10;4.30;;;16.80;70.50;;;;;;7386441;19;20014;-73
2023/05/17 09:48:16;;;;;;;14.50;5.32;;;16.90;69.80;;;;;;7405827;19;20017;-73
2023/05/17 09:50:49;;;;;;;11.40;4.85;;;17.00;70.00;;;;;;7381299;19;20007;-73
2023/05/17 09:53:27;;;;;;;18.80;5.85;;;17.00;69.70;;;;;;7389080;19;20019;-73
2023/05/17 09:55:58;;;;;;;14.90;4.35;;;16.80;69.80;;;;;;7387054;19;20385;-73
2023/05/17 09:58:33;;;;;;;16.08;4.97;;;17.00;70.80;;;;;;7386202;19;20031;-73
2023/05/17 10:01:07;;;;;;;13.95;4.88;;;17.00;70.70;;;;;;7408990;19;20011;-74
2023/05/17 10:03:37;;;;;;;13.80;4.75;;;17.00;70.70;;;;;;7385214;19;20006;-74
2023/05/17 10:06:11;;;;;;;15.07;4.75;;;17.00;69.10;;;;;;7384756;19;20238;-73
2023/05/17 10:08:48;;;;;;;14.88;4.18;;;17.00;69.70;;;;;;7406970;19;20011;-78
2023/05/17 10:11:19;;;;;;;14.77;4.28;;;16.60;68.90;;;;;;7383930;19;20038;-75
2023/05/17 10:13:56;;;;;;;16.25;4.10;;;16.80;70.70;;;;;;7411216;19;20009;-77
2023/05/17 10:16:26;;;;;;;10.30;4.10;;;17.10;70.50;;;;;;7382566;19;20251;-78
2023/05/17 10:18:55;;;;;;;14.27;4.10;;;17.10;69.20;;;;;;7409434;19;20251;-79
2023/05/17 10:21:24;;;;;;;10.55;4.20;;;17.30;70.20;;;;;;7382990;19;20002;-77
2023/05/17 10:23:55;;;;;;;14.15;4.43;;;17.30;68.90;;;;;;7412794;19;20120;-78
2023/05/17 10:26:25;;;;;;;12.70;4.18;;;17.50;68.70;;;;;;7415133;19;20009;-77
2023/05/17 10:29:01;;;;;;;11.95;4.05;;;17.60;69.10;;;;;;7411501;19;20023;-76
2023/05/17 10:31:32;;;;;;;14.15;4.63;;;17.70;68.70;;;;;;7405444;19;20010;-76
2023/05/17 10:34:04;;;;;;;10.18;3.42;;;17.70;67.10;;;;;;7381630;19;20038;-78
2023/05/17 10:36:33;;;;;;;9.57;4.13;;;17.80;67.80;;;;;;7410343;19;20006;-79
2023/05/17 10:39:02;;;;;;;12.52;4.05;;;17.80;68.70;;;;;;7390882;19;20034;-79
2023/05/17 10:42:01;;;;;;;11.98;4.00;;;17.90;68.30;;;;;;7396204;19;20009;-82
2023/05/17 10:44:34;;;;;;;10.70;3.58;;;18.00;67.80;;;;;;7291980;19;2004212;-78
2023/05/17 10:47:07;;;;;;;6.35;3.08;;;18.00;67.80;;;;;;7391629;19;20259;-75
2023/05/17 10:49:40;;;;;;;15.38;3.30;;;18.00;65.30;;;;;;7409526;19;20010;-77
2023/05/17 10:52:15;;;;;;;14.52;3.88;;;18.10;64.60;;;;;;7388728;19;20243;-78
2023/05/17 10:54:46;;;;;;;12.50;3.72;;;18.20;65.20;;;;;;7386190;19;20010;-76
2023/05/17 10:57:22;;;;;;;7.57;3.20;;;18.30;65.30;;;;;;7383577;19;20003;-76
2023/05/17 11:00:07;;;;;;;9.23;3.50;;;18.40;64.00;;;;;;7381864;19;20227;-77
2023/05/17 11:02:43;;;;;;;8.80;3.75;;;18.40;65.20;;;;;;7389288;19;20009;-77
2023/05/17 11:05:25;;;;;;;11.73;3.65;;;18.40;65.10;;;;;;7388918;19;20034;-76
2023/05/17 11:08:16;;;;;;;7.40;3.67;;;18.40;65.50;;;;;;7407944;19;20003;-79
2023/05/17 11:13:58;;;;;;;9.05;2.90;;;18.40;65.50;;;;;;7282622;19;2004622;-79
2023/05/17 11:16:38;;;;;;;10.20;2.95;;;18.40;65.70;;;;;;7415699;19;20050;-78
2023/05/17 11:19:12;;;;;;;4.45;2.70;;;18.50;65.80;;;;;;7386143;19;20014;-77
2023/05/17 11:21:50;;;;;;;8.25;3.08;;;18.50;64.10;;;;;;7386782;19;20027;-79
2023/05/17 11:24:30;;;;;;;8.10;3.67;;;18.60;63.40;;;;;;7386643;19;20011;-78
2023/05/17 11:27:07;;;;;;;8.73;3.65;;;18.80;62.50;;;;;;7388697;19;20002;-78
2023/05/17 11:29:36;;;;;;;11.10;3.67;;;18.80;63.80;;;;;;7387164;19;20226;-77
2023/05/17 11:32:12;;;;;;;8.95;4.25;;;18.80;62.20;;;;;;7385687;19;20019;-77
2023/05/17 11:34:41;;;;;;;11.23;3.22;;;19.00;61.30;;;;;;7409249;19;20027;-76
2023/05/17 11:37:26;;;;;;;8.57;3.00;;;18.90;61.70;;;;;;7388061;19;20019;-76
2023/05/17 11:40:06;;;;;;;9.63;2.78;;;18.90;62.50;;;;;;7388726;19;20035;-78
2023/05/17 11:42:36;;;;;;;6.25;3.08;;;18.80;61.70;;;;;;7387547;19;20002;-76
2023/05/17 11:45:06;;;;;;;10.88;4.15;;;18.80;61.50;;;;;;7386586;19;20003;-76
2023/05/17 11:47:41;;;;;;;11.98;4.00;;;18.80;63.20;;;;;;7383813;19;20062;-76
2023/05/17 11:50:13;;;;;;;8.10;3.15;;;18.80;64.00;;;;;;7384212;19;20083;-77
2023/05/17 11:52:42;;;;;;;;;;;18.90;63.20;;;;;;7406992;19;20025;-77
2023/05/17 11:55:16;;;;;;;9.30;2.75;;;18.90;62.50;;;;;;7387955;19;19915;-77
2023/05/17 11:57:46;;;;;;;8.35;2.58;;;18.80;62.30;;;;;;7386276;19;20030;-77
2023/05/17 12:00:16;;;;;;;8.25;2.97;;;18.70;62.00;;;;;;7385526;19;20250;-77
2023/05/17 12:02:48;;;;;;;5.95;2.38;;;18.90;63.30;;;;;;7385137;19;20018;-76
2023/05/17 12:05:21;;;;;;;7.57;2.53;;;18.90;63.20;;;;;;7386255;19;20006;-78
2023/05/17 12:07:53;;;;;;;11.45;2.78;;;18.90;63.50;;;;;;7407893;19;20036;-77
2023/05/17 12:10:22;;;;;;;8.50;3.00;;;19.10;64.30;;;;;;7384284;19;20070;-74
2023/05/17 12:12:51;;;;;;;8.68;2.90;;;19.10;63.70;;;;;;7384033;19;20010;-77
2023/05/17 12:15:21;;;;;;;5.38;2.70;;;19.30;63.10;;;;;;7385858;19;20007;-75
2023/05/17 12:17:53;;;;;;;5.57;2.50;;;19.30;63.20;;;;;;7386623;19;20070;-74
2023/05/17 12:20:21;;;;;;;7.22;2.97;;;19.30;61.60;;;;;;7391962;19;20014;-75
2023/05/17 12:22:57;;;;;;;7.97;2.50;;;19.40;61.60;;;;;;7422525;19;20015;-75
2023/05/17 12:25:28;;;;;;;8.75;2.33;;;19.30;61.90;;;;;;7386839;19;20369;-75
2023/05/17 12:28:14;;;;;;;7.82;2.90;;;19.30;61.60;;;;;;7384643;19;20231;-74
2023/05/17 12:30:43;;;;;;;5.15;2.90;;;19.20;61.00;;;;;;7382429;19;20011;-75
2023/05/17 12:33:17;;;;;;;7.03;3.53;;;19.10;61.30;;;;;;7382369;19;19999;-75
2023/05/17 12:35:47;;;;;;;13.18;5.78;;;19.00;62.60;;;;;;7383636;19;20010;-75
2023/05/17 12:38:16;;;;;;;12.13;3.70;;;19.10;63.30;;;;;;7382703;19;20039;-75
2023/05/17 12:40:54;;;;;;;6.85;2.75;;;19.10;63.40;;;;;;7403951;19;20375;-77
2023/05/17 12:43:30;;;;;;;9.10;2.90;;;19.10;63.60;;;;;;7384645;19;20003;-77
2023/05/17 12:46:05;;;;;;;7.70;2.78;;;19.20;63.30;;;;;;7384349;19;20010;-77
2023/05/17 12:48:38;;;;;;;6.68;2.70;;;19.10;62.80;;;;;;7382938;19;20062;-77
2023/05/17 12:51:14;;;;;;;6.10;3.00;;;19.10;61.90;;;;;;7385330;19;20139;-78
2023/05/17 12:53:50;;;;;;;10.20;3.25;;;19.00;62.20;;;;;;7384077;19;20020;-76
2023/05/17 12:56:21;;;;;;;8.60;2.80;;;18.90;62.70;;;;;;7384210;19;19996;-77
2023/05/17 12:59:11;;;;;;;7.60;2.50;;;18.80;63.90;;;;;;7406008;19;20031;-78
2023/05/17 13:01:42;;;;;;;7.63;3.10;;;19.10;64.80;;;;;;7383143;19;20007;-77